createdAt,value
2017-10-25T00:00:44.008Z,4.32
2017-10-25T00:01:43.989Z,4.33
2017-10-25T00:02:43.978Z,4.44
2017-10-25T00:03:43.962Z,4.37
2017-10-25T00:04:43.940Z,4.45
2017-10-25T00:05:43.924Z,4.33
2017-10-25T00:06:43.904Z,4.42
2017-10-25T00:07:43.892Z,4.41
2017-10-25T00:08:43.873Z,4.44
2017-10-25T00:09:43.861Z,4.36
2017-10-25T00:10:43.837Z,4.41
2017-10-25T00:11:43.821Z,4.36
2017-10-25T00:12:43.805Z,4.40
2017-10-25T00:13:43.789Z,4.44
2017-10-25T00:14:43.772Z,4.33
2017-10-25T00:15:43.759Z,4.48
2017-10-25T00:16:43.737Z,4.45
2017-10-25T00:17:43.726Z,4.34
2017-10-25T00:18:43.704Z,4.37
2017-10-25T00:19:43.687Z,4.40
2017-10-25T00:20:43.672Z,4.45
2017-10-25T00:21:43.661Z,4.41
2017-10-25T00:22:43.636Z,4.41
2017-10-25T00:23:43.626Z,4.42
2017-10-25T00:24:43.605Z,4.34
2017-10-25T00:25:43.589Z,4.42
2017-10-25T00:26:43.569Z,4.30
2017-10-25T00:27:43.561Z,4.30
2017-10-25T00:28:43.543Z,4.37
2017-10-25T00:29:43.523Z,4.40
2017-10-25T00:30:43.504Z,4.36
2017-10-25T00:31:43.493Z,4.36
2017-10-25T00:32:43.475Z,4.47
2017-10-25T00:33:43.455Z,4.42
2017-10-25T00:34:43.444Z,4.36
2017-10-25T00:35:43.429Z,4.40
2017-10-25T00:36:43.406Z,4.33
2017-10-25T00:37:43.396Z,4.33
2017-10-25T00:38:43.374Z,4.34
2017-10-25T00:39:43.357Z,4.37
2017-10-25T00:40:43.342Z,4.34
2017-10-25T00:41:43.324Z,4.50
2017-10-25T00:42:43.306Z,4.40
2017-10-25T00:43:43.293Z,4.48
2017-10-25T00:44:43.276Z,4.48
2017-10-25T00:45:43.263Z,4.45
2017-10-25T00:46:43.243Z,4.45
2017-10-25T00:47:43.227Z,4.51
2017-10-25T00:48:43.211Z,4.51
2017-10-25T00:49:43.193Z,4.47
2017-10-25T00:50:43.179Z,4.48
2017-10-25T00:51:43.166Z,4.48
2017-10-25T00:52:43.145Z,4.51
2017-10-25T00:53:43.128Z,4.54
2017-10-25T00:54:43.113Z,4.65
2017-10-25T00:55:43.095Z,4.51
2017-10-25T00:56:43.084Z,4.63
2017-10-25T00:57:43.064Z,4.59
2017-10-25T00:58:43.049Z,4.63
2017-10-25T00:59:43.031Z,4.60
2017-10-25T01:00:43.013Z,4.70
2017-10-25T01:01:42.999Z,4.70
2017-10-25T01:02:42.981Z,4.62
2017-10-25T01:03:42.966Z,4.67
2017-10-25T01:04:42.950Z,4.70
2017-10-25T01:05:42.938Z,4.70
2017-10-25T01:06:42.915Z,4.65
2017-10-25T01:07:42.905Z,4.66
2017-10-25T01:08:42.882Z,4.72
2017-10-25T01:09:42.868Z,4.66
2017-10-25T01:10:42.851Z,4.67
2017-10-25T01:11:42.839Z,4.60
2017-10-25T01:12:42.817Z,4.70
2017-10-25T01:13:42.802Z,4.65
2017-10-25T01:14:42.784Z,4.70
2017-10-25T01:15:42.770Z,4.63
2017-10-25T01:16:42.753Z,4.59
2017-10-25T01:17:42.741Z,4.59
2017-10-25T01:18:42.719Z,4.75
2017-10-25T01:19:42.704Z,4.67
2017-10-25T01:20:42.688Z,4.58
2017-10-25T01:21:42.673Z,4.65
2017-10-25T01:22:42.655Z,4.67
2017-10-25T01:23:42.639Z,4.73
2017-10-25T01:24:42.623Z,4.65
2017-10-25T01:25:42.608Z,4.67
2017-10-25T01:26:42.590Z,4.67
2017-10-25T01:27:42.573Z,4.62
2017-10-25T01:28:42.559Z,4.69
2017-10-25T01:29:42.541Z,4.77
2017-10-25T01:30:42.527Z,4.67
2017-10-25T01:31:42.510Z,4.66
2017-10-25T01:32:42.492Z,4.67
2017-10-25T01:33:42.478Z,4.72
2017-10-25T01:34:42.459Z,4.72
2017-10-25T01:35:42.450Z,4.70
2017-10-25T01:36:42.429Z,4.66
2017-10-25T01:37:42.415Z,4.73
2017-10-25T01:38:42.408Z,4.63
2017-10-25T01:39:42.379Z,4.69
2017-10-25T01:40:42.363Z,4.72
2017-10-25T01:41:42.346Z,4.66
2017-10-25T01:42:42.329Z,4.78
2017-10-25T01:43:42.313Z,4.86
2017-10-25T01:44:42.297Z,4.75
2017-10-25T01:45:42.283Z,4.67
2017-10-25T01:46:42.263Z,4.82
2017-10-25T01:47:42.247Z,4.80
2017-10-25T01:48:42.231Z,4.78
2017-10-25T01:49:42.216Z,4.82
2017-10-25T01:50:42.198Z,4.89
2017-10-25T01:51:42.182Z,4.94
2017-10-25T01:52:42.167Z,4.99
2017-10-25T01:53:42.150Z,4.96
2017-10-25T01:54:42.132Z,4.97
2017-10-25T01:55:42.117Z,5.02
2017-10-25T01:56:42.099Z,4.92
2017-10-25T01:57:42.083Z,4.88
2017-10-25T01:58:42.068Z,4.99
2017-10-25T01:59:42.051Z,5.00
2017-10-25T02:00:42.035Z,5.00
2017-10-25T02:01:42.019Z,5.04
2017-10-25T02:02:42.002Z,4.97
2017-10-25T02:03:41.985Z,4.97
2017-10-25T02:04:41.970Z,4.96
2017-10-25T02:05:41.951Z,4.89
2017-10-25T02:06:41.936Z,4.84
2017-10-25T02:07:41.924Z,4.85
2017-10-25T02:08:41.901Z,4.91
2017-10-25T02:09:41.893Z,4.88
2017-10-25T02:10:41.867Z,4.77
2017-10-25T02:11:41.851Z,4.73
2017-10-25T02:12:41.835Z,4.82
2017-10-25T02:13:41.825Z,4.75
2017-10-25T02:14:41.808Z,4.66
2017-10-25T02:15:41.787Z,4.66
2017-10-25T02:16:41.775Z,4.66
2017-10-25T02:17:41.759Z,4.75
2017-10-25T02:18:41.737Z,4.69
2017-10-25T02:19:41.720Z,4.73
2017-10-25T02:20:41.703Z,4.67
2017-10-25T02:21:41.687Z,4.72
2017-10-25T02:22:41.677Z,4.62
2017-10-25T02:23:41.654Z,4.65
2017-10-25T02:24:41.644Z,4.67
2017-10-25T02:25:41.624Z,4.77
2017-10-25T02:26:41.605Z,4.65
2017-10-25T02:27:41.591Z,4.58
2017-10-25T02:28:41.573Z,4.67
2017-10-25T02:29:41.558Z,4.52
2017-10-25T02:30:41.540Z,4.63
2017-10-25T02:31:41.527Z,4.69
2017-10-25T02:32:41.510Z,4.52
2017-10-25T02:33:41.494Z,4.62
2017-10-25T02:34:41.481Z,4.59
2017-10-25T02:35:41.469Z,4.67
2017-10-25T02:36:41.445Z,4.73
2017-10-25T02:37:41.429Z,4.60
2017-10-25T02:38:41.417Z,4.72
2017-10-25T02:39:41.395Z,4.66
2017-10-25T02:40:41.381Z,4.80
2017-10-25T02:41:41.368Z,4.72
2017-10-25T02:42:41.361Z,4.75
2017-10-25T02:43:41.330Z,4.63
2017-10-25T02:44:41.315Z,4.75
2017-10-25T02:45:41.298Z,4.69
2017-10-25T02:46:41.282Z,4.73
2017-10-25T02:47:41.266Z,4.72
2017-10-25T02:48:41.255Z,4.69
2017-10-25T02:49:41.243Z,4.69
2017-10-25T02:50:41.218Z,4.69
2017-10-25T02:51:41.203Z,4.70
2017-10-25T02:52:41.186Z,4.69
2017-10-25T02:53:41.170Z,4.73
2017-10-25T02:54:41.156Z,4.70
2017-10-25T02:55:41.137Z,4.67
2017-10-25T02:56:41.119Z,4.65
2017-10-25T02:57:41.103Z,4.72
2017-10-25T02:58:41.087Z,4.70
2017-10-25T02:59:41.074Z,4.66
2017-10-25T03:00:41.053Z,4.66
2017-10-25T03:01:41.038Z,4.72
2017-10-25T03:02:41.021Z,4.69
2017-10-25T03:03:41.005Z,4.70
2017-10-25T03:04:40.996Z,4.67
2017-10-25T03:05:40.971Z,4.70
2017-10-25T03:06:40.956Z,4.72
2017-10-25T03:07:40.939Z,4.67
2017-10-25T03:08:40.922Z,4.69
2017-10-25T03:09:40.912Z,4.67
2017-10-25T03:10:40.891Z,4.69
2017-10-25T03:11:40.874Z,4.65
2017-10-25T03:12:40.859Z,4.70
2017-10-25T03:13:40.842Z,4.67
2017-10-25T03:14:40.823Z,4.70
2017-10-25T03:15:40.807Z,4.70
2017-10-25T03:16:40.792Z,4.66
2017-10-25T03:17:40.781Z,4.70
2017-10-25T03:18:40.762Z,4.65
2017-10-25T03:19:40.742Z,4.67
2017-10-25T03:20:40.727Z,4.72
2017-10-25T03:21:40.711Z,4.67
2017-10-25T03:22:40.692Z,4.67
2017-10-25T03:23:40.683Z,4.75
2017-10-25T03:24:40.667Z,4.65
2017-10-25T03:25:40.648Z,4.70
2017-10-25T03:26:40.629Z,4.67
2017-10-25T03:27:40.612Z,4.73
2017-10-25T03:28:40.597Z,4.66
2017-10-25T03:29:40.579Z,4.69
2017-10-25T03:30:40.563Z,4.69
2017-10-25T03:31:40.546Z,4.70
2017-10-25T03:32:40.530Z,4.72
2017-10-25T03:33:40.520Z,4.67
2017-10-25T03:34:40.498Z,4.77
2017-10-25T03:35:40.482Z,4.69
2017-10-25T03:36:40.464Z,4.67
2017-10-25T03:37:40.453Z,4.67
2017-10-25T03:38:40.432Z,4.78
2017-10-25T03:39:40.417Z,4.75
2017-10-25T03:40:40.410Z,4.70
2017-10-25T03:41:40.386Z,4.72
2017-10-25T03:42:40.368Z,4.73
2017-10-25T03:43:40.352Z,4.82
2017-10-25T03:44:40.335Z,4.78
2017-10-25T03:45:40.320Z,4.72
2017-10-25T03:46:40.308Z,4.80
2017-10-25T03:47:40.287Z,4.82
2017-10-25T03:48:40.277Z,4.80
2017-10-25T03:49:40.261Z,4.85
2017-10-25T03:50:40.237Z,4.77
2017-10-25T03:51:40.226Z,4.84
2017-10-25T03:52:40.205Z,4.72
2017-10-25T03:53:40.190Z,4.80
2017-10-25T03:54:40.172Z,4.78
2017-10-25T03:55:40.156Z,4.82
2017-10-25T03:56:40.139Z,4.88
2017-10-25T03:57:40.132Z,4.80
2017-10-25T03:58:40.108Z,4.84
2017-10-25T03:59:40.091Z,4.80
2017-10-25T04:00:40.075Z,4.84
2017-10-25T04:01:40.062Z,4.85
2017-10-25T04:02:40.042Z,4.82
2017-10-25T04:03:40.026Z,4.78
2017-10-25T04:04:40.011Z,4.84
2017-10-25T04:05:39.999Z,4.80
2017-10-25T04:06:39.991Z,4.80
2017-10-25T04:07:39.960Z,4.82
2017-10-25T04:08:39.946Z,4.82
2017-10-25T04:09:39.929Z,4.84
2017-10-25T04:10:39.913Z,4.78
2017-10-25T04:11:39.912Z,4.82
2017-10-25T04:12:39.885Z,4.82
2017-10-25T04:13:39.864Z,4.91
2017-10-25T04:14:39.852Z,4.85
2017-10-25T04:15:39.831Z,4.84
2017-10-25T04:16:39.820Z,4.85
2017-10-25T04:17:39.798Z,4.91
2017-10-25T04:18:39.782Z,4.85
2017-10-25T04:19:39.772Z,4.86
2017-10-25T04:20:39.757Z,4.88
2017-10-25T04:21:39.733Z,4.86
2017-10-25T04:22:39.718Z,4.89
2017-10-25T04:23:39.701Z,4.84
2017-10-25T04:24:39.685Z,4.92
2017-10-25T04:25:39.669Z,4.89
2017-10-25T04:26:39.653Z,4.86
2017-10-25T04:27:39.636Z,4.82
2017-10-25T04:28:39.622Z,4.88
2017-10-25T04:29:39.608Z,4.91
2017-10-25T04:30:39.588Z,4.86
2017-10-25T04:31:39.574Z,4.86
2017-10-25T04:32:39.561Z,4.92
2017-10-25T04:33:39.540Z,4.92
2017-10-25T04:34:39.529Z,4.97
2017-10-25T04:35:39.513Z,4.88
2017-10-25T04:36:39.490Z,4.94
2017-10-25T04:37:39.476Z,5.02
2017-10-25T04:38:39.461Z,4.94
2017-10-25T04:39:39.442Z,4.97
2017-10-25T04:40:39.428Z,4.94
2017-10-25T04:41:39.411Z,4.94
2017-10-25T04:42:39.393Z,4.97
2017-10-25T04:43:39.379Z,5.00
2017-10-25T04:44:39.361Z,4.88
2017-10-25T04:45:39.351Z,4.91
2017-10-25T04:46:39.329Z,4.85
2017-10-25T04:47:39.312Z,4.84
2017-10-25T04:48:39.303Z,4.84
2017-10-25T04:49:39.286Z,4.78
2017-10-25T04:50:39.264Z,4.82
2017-10-25T04:51:39.249Z,4.80
2017-10-25T04:52:39.232Z,4.82
2017-10-25T04:53:39.222Z,4.88
2017-10-25T04:54:39.201Z,4.80
2017-10-25T04:55:39.189Z,4.75
2017-10-25T04:56:39.168Z,4.84
2017-10-25T04:57:39.158Z,4.82
2017-10-25T04:58:39.136Z,4.86
2017-10-25T04:59:39.120Z,4.78
2017-10-25T05:00:39.106Z,4.78
2017-10-25T05:01:39.089Z,4.82
2017-10-25T05:02:39.071Z,4.82
2017-10-25T05:03:39.062Z,4.84
2017-10-25T05:04:39.045Z,4.84
2017-10-25T05:05:39.025Z,4.78
2017-10-25T05:06:39.009Z,4.86
2017-10-25T05:07:38.993Z,4.86
2017-10-25T05:08:38.975Z,4.78
2017-10-25T05:09:38.961Z,4.82
2017-10-25T05:10:38.943Z,4.82
2017-10-25T05:11:38.927Z,4.73
2017-10-25T05:12:38.919Z,4.80
2017-10-25T05:13:38.897Z,4.85
2017-10-25T05:14:38.878Z,4.89
2017-10-25T05:15:38.862Z,4.80
2017-10-25T05:16:38.849Z,4.85
2017-10-25T05:17:38.835Z,4.85
2017-10-25T05:18:38.816Z,4.85
2017-10-25T05:19:38.804Z,4.88
2017-10-25T05:20:38.784Z,4.84
2017-10-25T05:21:38.767Z,4.91
2017-10-25T05:22:38.751Z,4.94
2017-10-25T05:23:38.734Z,4.99
2017-10-25T05:24:38.720Z,4.86
2017-10-25T05:25:38.702Z,4.96
2017-10-25T05:26:38.687Z,5.02
2017-10-25T05:27:38.669Z,4.89
2017-10-25T05:28:38.665Z,4.99
2017-10-25T05:29:38.638Z,4.99
2017-10-25T05:30:38.621Z,4.91
2017-10-25T05:31:38.607Z,4.91
2017-10-25T05:32:38.590Z,4.99
2017-10-25T05:33:38.573Z,4.92
2017-10-25T05:34:38.558Z,4.97
2017-10-25T05:35:38.548Z,5.04
2017-10-25T05:36:38.526Z,4.97
2017-10-25T05:37:38.509Z,4.99
2017-10-25T05:38:38.492Z,4.97
2017-10-25T05:39:38.479Z,5.00
2017-10-25T05:40:38.465Z,5.04
2017-10-25T05:41:38.448Z,5.03
2017-10-25T05:42:38.431Z,5.04
2017-10-25T05:43:38.415Z,5.02
2017-10-25T05:44:38.397Z,5.02
2017-10-25T05:45:38.381Z,5.07
2017-10-25T05:46:38.365Z,5.09
2017-10-25T05:47:38.351Z,5.10
2017-10-25T05:48:38.335Z,5.06
2017-10-25T05:49:38.317Z,5.10
2017-10-25T05:50:38.302Z,5.17
2017-10-25T05:51:38.285Z,5.12
2017-10-25T05:52:38.272Z,5.12
2017-10-25T05:53:38.259Z,5.07
2017-10-25T05:54:38.238Z,5.04
2017-10-25T05:55:38.227Z,5.13
2017-10-25T05:56:38.205Z,5.07
2017-10-25T05:57:38.190Z,5.20
2017-10-25T05:58:38.179Z,5.15
2017-10-25T05:59:38.158Z,5.17
2017-10-25T06:00:38.147Z,5.17
2017-10-25T06:01:38.128Z,5.20
2017-10-25T06:02:38.115Z,5.27
2017-10-25T06:03:38.095Z,5.25
2017-10-25T06:04:38.083Z,5.25
2017-10-25T06:05:38.070Z,5.24
2017-10-25T06:06:38.045Z,5.31
2017-10-25T06:07:38.031Z,5.33
2017-10-25T06:08:38.015Z,5.33
2017-10-25T06:09:37.998Z,5.30
2017-10-25T06:10:37.981Z,5.36
2017-10-25T06:11:37.967Z,5.30
2017-10-25T06:12:37.950Z,5.40
2017-10-25T06:13:37.935Z,5.45
2017-10-25T06:14:37.920Z,5.35
2017-10-25T06:15:37.907Z,5.49
2017-10-25T06:16:37.886Z,5.49
2017-10-25T06:17:37.877Z,5.48
2017-10-25T06:18:37.854Z,5.53
2017-10-25T06:19:37.840Z,5.54
2017-10-25T06:20:37.829Z,5.53
2017-10-25T06:21:37.809Z,5.63
2017-10-25T06:22:37.791Z,5.65
2017-10-25T06:23:37.782Z,5.64
2017-10-25T06:24:37.761Z,5.71
2017-10-25T06:25:37.747Z,5.71
2017-10-25T06:26:37.735Z,5.68
2017-10-25T06:27:37.715Z,5.67
2017-10-25T06:28:37.699Z,5.75
2017-10-25T06:29:37.683Z,5.76
2017-10-25T06:30:37.666Z,5.67
2017-10-25T06:31:37.652Z,5.76
2017-10-25T06:32:37.635Z,5.74
2017-10-25T06:33:37.620Z,5.76
2017-10-25T06:34:37.604Z,5.78
2017-10-25T06:35:37.594Z,5.89
2017-10-25T06:36:37.579Z,5.79
2017-10-25T06:37:37.558Z,5.82
2017-10-25T06:38:37.544Z,5.86
2017-10-25T06:39:37.525Z,5.82
2017-10-25T06:40:37.517Z,5.83
2017-10-25T06:41:37.496Z,5.83
2017-10-25T06:42:37.479Z,5.89
2017-10-25T06:43:37.464Z,5.85
2017-10-25T06:44:37.448Z,5.85
2017-10-25T06:45:37.432Z,5.91
2017-10-25T06:46:37.417Z,5.91
2017-10-25T06:47:37.402Z,5.97
2017-10-25T06:48:37.386Z,6.00
2017-10-25T06:49:37.377Z,6.01
2017-10-25T06:50:37.356Z,6.01
2017-10-25T06:51:37.341Z,6.06
2017-10-25T06:52:37.324Z,6.04
2017-10-25T06:53:37.315Z,6.09
2017-10-25T06:54:37.300Z,6.15
2017-10-25T06:55:37.279Z,6.22
2017-10-25T06:56:37.265Z,6.22
2017-10-25T06:57:37.250Z,6.27
2017-10-25T06:58:37.234Z,6.34
2017-10-25T06:59:37.219Z,6.31
2017-10-25T07:00:37.204Z,6.30
2017-10-25T07:01:37.190Z,6.40
2017-10-25T07:02:37.173Z,6.37
2017-10-25T07:03:37.161Z,6.37
2017-10-25T07:04:37.147Z,6.54
2017-10-25T07:05:37.129Z,6.56
2017-10-25T07:06:37.112Z,6.58
2017-10-25T07:07:37.097Z,6.61
2017-10-25T07:08:37.084Z,6.67
2017-10-25T07:09:37.068Z,6.66
2017-10-25T07:10:37.067Z,6.66
2017-10-25T07:11:37.044Z,6.69
2017-10-25T07:12:37.031Z,6.79
2017-10-25T07:13:37.008Z,6.84
2017-10-25T07:14:36.995Z,6.95
2017-10-25T07:15:36.978Z,6.95
2017-10-25T07:16:36.971Z,7.02
2017-10-25T07:17:36.951Z,6.98
2017-10-25T07:18:36.939Z,7.10
2017-10-25T07:19:36.927Z,7.20
2017-10-25T07:20:36.908Z,7.15
2017-10-25T07:21:36.907Z,7.17
2017-10-25T07:22:36.875Z,7.16
2017-10-25T07:23:36.864Z,7.23
2017-10-25T07:24:36.848Z,7.24
2017-10-25T07:25:36.902Z,7.25
2017-10-25T07:26:36.822Z,7.34
2017-10-25T07:27:36.803Z,7.25
2017-10-25T07:28:36.788Z,7.32
2017-10-25T07:29:36.775Z,7.37
2017-10-25T07:30:36.761Z,7.46
2017-10-25T07:33:27.128Z,7.57
2017-10-25T07:34:27.110Z,7.63
2017-10-25T07:35:27.097Z,7.67
2017-10-25T07:36:27.085Z,7.72
2017-10-25T07:37:27.069Z,7.74
2017-10-25T07:38:27.055Z,7.80
2017-10-25T07:39:27.042Z,7.93
2017-10-25T07:40:27.027Z,8.02
2017-10-25T07:41:27.014Z,8.12
2017-10-25T07:42:26.998Z,8.20
2017-10-25T07:43:26.986Z,8.37
2017-10-25T07:44:26.973Z,8.45
2017-10-25T07:45:26.964Z,8.62
2017-10-25T07:46:26.948Z,8.62
2017-10-25T07:47:26.932Z,8.71
2017-10-25T07:48:26.920Z,8.74
2017-10-25T07:49:26.906Z,8.74
2017-10-25T07:50:26.892Z,8.73
2017-10-25T07:51:26.880Z,8.74
2017-10-25T07:52:26.865Z,8.73
2017-10-25T07:53:26.870Z,8.80
2017-10-25T07:54:26.839Z,8.91
2017-10-25T07:55:26.830Z,9.01
2017-10-25T07:56:26.814Z,9.04
2017-10-25T07:57:26.802Z,9.13
2017-10-25T07:58:26.789Z,9.21
2017-10-25T07:59:26.776Z,9.23
2017-10-25T08:00:26.763Z,9.29
2017-10-25T08:01:26.759Z,9.21
2017-10-25T08:02:26.738Z,9.28
2017-10-25T08:03:26.723Z,9.36
2017-10-25T08:04:26.712Z,9.39
2017-10-25T08:05:26.701Z,9.26
2017-10-25T08:06:26.686Z,9.21
2017-10-25T08:07:26.675Z,9.11
2017-10-25T08:08:26.663Z,9.11
2017-10-25T08:09:26.647Z,8.99
2017-10-25T08:10:26.635Z,8.94
2017-10-25T08:11:26.623Z,9.13
2017-10-25T08:12:26.611Z,9.10
2017-10-25T08:13:26.600Z,8.99
2017-10-25T08:14:26.635Z,9.08
2017-10-25T08:15:26.605Z,9.26
2017-10-25T08:16:26.591Z,9.46
2017-10-25T08:17:26.550Z,9.50
2017-10-25T08:18:26.583Z,9.66
2017-10-25T08:19:26.525Z,9.74
2017-10-25T08:20:26.545Z,9.90
2017-10-25T08:21:26.530Z,10.04
2017-10-25T08:22:26.533Z,10.08
2017-10-25T08:23:26.477Z,10.17
2017-10-25T08:24:26.509Z,10.25
2017-10-25T08:25:26.471Z,10.25
2017-10-25T08:26:26.442Z,10.29
2017-10-25T08:27:26.436Z,10.38
2017-10-25T08:28:26.446Z,10.33
2017-10-25T08:29:26.434Z,10.38
2017-10-25T08:30:26.393Z,10.30
2017-10-25T08:31:26.394Z,10.22
2017-10-25T08:32:26.377Z,10.32
2017-10-25T08:33:26.363Z,10.29
2017-10-25T08:34:26.361Z,10.30
2017-10-25T08:35:26.335Z,10.33
2017-10-25T08:36:26.331Z,10.27
2017-10-25T08:37:26.312Z,10.12
2017-10-25T08:38:26.321Z,9.99
2017-10-25T08:39:26.289Z,9.89
2017-10-25T08:40:26.293Z,9.66
2017-10-25T08:41:26.317Z,9.81
2017-10-25T08:42:26.290Z,9.89
2017-10-25T08:43:26.284Z,10.15
2017-10-25T08:44:26.231Z,10.48
2017-10-25T08:45:26.224Z,10.89
2017-10-25T08:46:26.217Z,11.43
2017-10-25T08:47:26.197Z,11.76
2017-10-25T08:48:26.187Z,12.04
2017-10-25T08:49:26.179Z,12.19
2017-10-25T08:50:26.189Z,12.14
2017-10-25T08:51:26.152Z,12.34
2017-10-25T08:52:26.144Z,12.32
2017-10-25T08:53:26.133Z,12.65
2017-10-25T08:54:26.119Z,13.00
2017-10-25T08:55:26.111Z,13.26
2017-10-25T08:56:26.099Z,13.79
2017-10-25T08:57:26.089Z,13.92
2017-10-25T08:58:26.078Z,13.92
2017-10-25T08:59:26.069Z,13.99
2017-10-25T09:00:26.058Z,14.29
2017-10-25T09:01:26.049Z,14.77
2017-10-25T09:02:26.037Z,15.31
2017-10-25T09:03:26.029Z,16.00
2017-10-25T09:04:26.018Z,16.76
2017-10-25T09:05:26.009Z,17.49
2017-10-25T09:06:26.001Z,17.70
2017-10-25T09:07:25.989Z,17.99
2017-10-25T09:08:25.981Z,18.07
2017-10-25T09:09:25.972Z,18.35
2017-10-25T09:10:25.961Z,18.65
2017-10-25T09:11:25.954Z,18.81
2017-10-25T09:12:25.943Z,19.07
2017-10-25T09:13:25.934Z,19.39
2017-10-25T09:14:25.925Z,19.78
2017-10-25T09:15:25.916Z,19.80
2017-10-25T09:16:25.906Z,19.94
2017-10-25T09:17:25.897Z,19.98
2017-10-25T09:18:25.888Z,20.13
2017-10-25T09:19:25.882Z,20.73
2017-10-25T09:20:25.871Z,20.36
2017-10-25T09:21:25.863Z,20.58
2017-10-25T09:22:25.854Z,20.94
2017-10-25T09:23:25.845Z,21.64
2017-10-25T09:24:25.838Z,22.15
2017-10-25T09:25:25.831Z,23.25
2017-10-25T09:26:25.824Z,24.09
2017-10-25T09:27:25.815Z,24.67
2017-10-25T09:28:25.808Z,25.23
2017-10-25T09:29:25.801Z,25.13
2017-10-25T09:30:25.797Z,25.09
2017-10-25T09:31:25.791Z,25.03
2017-10-25T09:32:25.789Z,24.88
2017-10-25T09:33:25.782Z,24.93
2017-10-25T09:34:25.774Z,24.87
2017-10-25T09:35:25.772Z,25.17
2017-10-25T09:36:25.771Z,25.42
2017-10-25T09:37:25.766Z,25.87
2017-10-25T09:38:25.769Z,26.45
2017-10-25T09:39:25.762Z,27.18
2017-10-25T09:40:25.758Z,27.65
2017-10-25T09:41:25.759Z,27.90
2017-10-25T09:42:25.758Z,28.19
2017-10-25T09:43:25.759Z,28.62
2017-10-25T09:44:25.759Z,28.66
2017-10-25T09:45:25.761Z,28.37
2017-10-25T09:46:25.763Z,28.18
2017-10-25T09:47:25.764Z,27.85
2017-10-25T09:48:25.766Z,27.06
2017-10-25T09:49:25.770Z,26.21
2017-10-25T09:50:25.777Z,25.87
2017-10-25T09:51:25.776Z,26.15
2017-10-25T09:52:25.782Z,25.80
2017-10-25T09:53:25.784Z,25.10
2017-10-25T09:54:25.788Z,24.35
2017-10-25T09:55:25.792Z,23.87
2017-10-25T09:56:25.798Z,23.69
2017-10-25T09:57:25.800Z,23.07
2017-10-25T09:58:25.806Z,22.57
2017-10-25T09:59:25.810Z,22.57
2017-10-25T10:00:25.815Z,21.98
2017-10-25T10:01:25.819Z,21.44
2017-10-25T10:02:25.822Z,20.87
2017-10-25T10:03:25.830Z,20.38
2017-10-25T10:04:25.833Z,20.02
2017-10-25T10:05:25.838Z,19.44
2017-10-25T10:06:25.842Z,19.21
2017-10-25T10:07:25.846Z,19.37
2017-10-25T10:08:25.856Z,19.59
2017-10-25T10:09:25.859Z,19.37
2017-10-25T10:10:25.862Z,19.21
2017-10-25T10:11:25.866Z,18.80
2017-10-25T10:12:25.878Z,18.42
2017-10-25T10:13:25.881Z,18.17
2017-10-25T10:14:25.886Z,18.20
2017-10-25T10:15:25.892Z,18.17
2017-10-25T10:16:25.901Z,18.08
2017-10-25T10:17:25.904Z,17.63
2017-10-25T10:18:25.918Z,17.58
2017-10-25T10:19:25.916Z,17.92
2017-10-25T10:20:25.918Z,18.48
2017-10-25T10:21:25.925Z,18.35
2017-10-25T10:22:25.927Z,18.35
2017-10-25T10:23:25.933Z,17.74
2017-10-25T10:24:25.942Z,17.87
2017-10-25T10:25:25.958Z,17.86
2017-10-25T10:26:25.953Z,17.87
2017-10-25T10:27:25.951Z,17.77
2017-10-25T10:28:25.953Z,18.21
2017-10-25T10:29:25.956Z,18.44
2017-10-25T10:30:25.970Z,18.29
2017-10-25T10:31:25.972Z,18.17
2017-10-25T10:32:25.962Z,18.32
2017-10-25T10:33:25.967Z,18.30
2017-10-25T10:34:25.967Z,18.10
2017-10-25T10:35:25.967Z,18.17
2017-10-25T10:36:25.984Z,17.95
2017-10-25T10:37:25.970Z,17.81
2017-10-25T10:38:25.969Z,17.79
2017-10-25T10:39:25.993Z,17.64
2017-10-25T10:40:25.979Z,17.41
2017-10-25T10:41:25.969Z,17.48
2017-10-25T10:42:25.982Z,17.23
2017-10-25T10:43:25.965Z,17.08
2017-10-25T10:44:25.975Z,16.81
2017-10-25T10:45:25.971Z,16.66
2017-10-25T10:46:25.970Z,16.39
2017-10-25T10:47:25.969Z,16.60
2017-10-25T10:48:25.964Z,16.73
2017-10-25T10:49:25.957Z,16.57
2017-10-25T10:50:25.955Z,16.71
2017-10-25T10:51:25.955Z,16.57
2017-10-25T10:52:25.950Z,16.60
2017-10-25T10:53:25.948Z,16.50
2017-10-25T10:54:25.967Z,16.38
2017-10-25T10:55:25.946Z,16.48
2017-10-25T10:56:25.952Z,16.45
2017-10-25T10:57:25.942Z,16.73
2017-10-25T10:58:25.961Z,16.45
2017-10-25T10:59:25.942Z,16.43
2017-10-25T11:00:25.951Z,16.35
2017-10-25T11:01:25.941Z,16.34
2017-10-25T11:02:25.938Z,16.35
2017-10-25T11:03:25.927Z,16.48
2017-10-25T11:04:25.912Z,16.50
2017-10-25T11:05:25.911Z,16.43
2017-10-25T11:06:25.913Z,16.46
2017-10-25T11:07:25.916Z,16.43
2017-10-25T11:08:25.903Z,16.56
2017-10-25T11:09:25.885Z,16.48
2017-10-25T11:10:25.920Z,16.38
2017-10-25T11:11:25.900Z,16.25
2017-10-25T11:12:25.898Z,16.24
2017-10-25T11:55:25.655Z,17.01
2017-10-25T11:56:25.622Z,16.96
2017-10-25T11:57:25.635Z,16.91
2017-10-25T11:58:25.627Z,17.01
2017-10-25T11:59:25.623Z,16.97
2017-10-25T12:00:25.613Z,17.01
2017-10-25T12:01:25.656Z,17.03
2017-10-25T12:02:25.612Z,17.04
2017-10-25T12:03:25.607Z,17.04
2017-10-25T12:04:25.605Z,17.04
2017-10-25T12:05:25.604Z,17.08
2017-10-25T12:06:25.595Z,17.01
2017-10-25T12:07:25.595Z,16.97
2017-10-25T12:08:25.592Z,17.01
2017-10-25T12:09:25.562Z,16.97
2017-10-25T12:10:25.643Z,17.00
2017-10-25T12:11:25.571Z,16.94
2017-10-25T12:12:25.573Z,16.81
2017-10-25T12:13:25.544Z,16.85
2017-10-25T12:14:25.559Z,16.81
2017-10-25T12:15:25.553Z,16.83
2017-10-25T12:16:25.553Z,16.82
2017-10-25T12:17:25.548Z,17.03
2017-10-25T12:18:25.543Z,17.06
2017-10-25T12:19:25.528Z,16.98
2017-10-25T12:20:25.533Z,16.96
2017-10-25T12:21:25.513Z,17.12
2017-10-25T12:22:25.507Z,17.15
2017-10-25T12:23:25.513Z,17.18
2017-10-25T12:24:25.507Z,17.21
2017-10-25T12:25:25.501Z,17.12
2017-10-25T12:26:25.484Z,17.12
2017-10-25T12:27:25.494Z,17.18
2017-10-25T12:28:25.487Z,17.18
2017-10-25T12:29:25.470Z,17.22
2017-10-25T12:30:25.468Z,17.26
2017-10-25T12:31:25.470Z,17.25
2017-10-25T12:32:25.451Z,17.23
2017-10-25T12:33:25.459Z,17.26
2017-10-25T12:34:25.440Z,17.31
2017-10-25T12:35:25.442Z,17.33
2017-10-25T12:36:25.446Z,17.31
2017-10-25T12:37:25.431Z,17.40
2017-10-25T12:38:25.432Z,17.41
2017-10-25T12:39:25.424Z,17.52
2017-10-25T12:40:25.421Z,17.59
2017-10-25T12:41:25.412Z,17.54
2017-10-25T12:42:25.408Z,17.44
2017-10-25T12:43:25.404Z,17.46
2017-10-25T12:44:25.399Z,17.54
2017-10-25T12:45:25.395Z,17.51
2017-10-25T12:46:25.388Z,17.58
2017-10-25T12:47:25.379Z,17.56
2017-10-25T12:48:25.377Z,17.74
2017-10-25T12:49:25.374Z,17.81
2017-10-25T12:50:25.361Z,17.74
2017-10-25T12:51:25.361Z,17.74
2017-10-25T12:52:25.357Z,17.71
2017-10-25T12:53:25.348Z,17.59
2017-10-25T12:54:25.341Z,17.52
2017-10-25T12:55:25.329Z,17.55
2017-10-25T12:56:25.334Z,17.54
2017-10-25T12:57:25.326Z,17.55
2017-10-25T12:58:25.312Z,17.54
2017-10-25T12:59:25.309Z,17.52
2017-10-25T13:00:25.299Z,17.55
2017-10-25T13:01:25.304Z,17.62
2017-10-25T13:02:25.291Z,17.58
2017-10-25T13:03:25.295Z,17.48
2017-10-25T13:04:25.285Z,17.55
2017-10-25T13:05:25.270Z,17.72
2017-10-25T13:06:25.278Z,17.95
2017-10-25T13:07:25.323Z,17.95
2017-10-25T13:08:25.269Z,18.05
2017-10-25T13:09:25.239Z,18.02
2017-10-25T13:10:25.256Z,18.08
2017-10-25T13:11:25.196Z,18.20
2017-10-25T13:12:25.190Z,18.18
2017-10-25T13:13:25.186Z,18.11
2017-10-25T13:14:25.179Z,18.15
2017-10-25T13:15:25.173Z,18.32
2017-10-25T13:16:25.171Z,18.45
2017-10-25T13:17:25.165Z,18.52
2017-10-25T13:18:25.160Z,18.65
2017-10-25T13:19:25.155Z,18.57
2017-10-25T13:20:25.150Z,18.45
2017-10-25T13:21:25.157Z,18.42
2017-10-25T13:22:25.140Z,18.48
2017-10-25T13:23:25.137Z,18.55
2017-10-25T13:24:25.130Z,18.63
2017-10-25T13:25:25.127Z,18.60
2017-10-25T13:26:25.129Z,18.48
2017-10-25T13:27:25.118Z,18.42
2017-10-25T13:28:25.159Z,18.44
2017-10-25T13:29:25.147Z,18.42
2017-10-25T13:30:25.161Z,18.41
2017-10-25T13:31:25.143Z,18.36
2017-10-25T13:32:25.141Z,18.27
2017-10-25T13:33:25.145Z,18.20
2017-10-25T13:34:25.091Z,18.07
2017-10-25T13:35:25.086Z,18.00
2017-10-25T13:36:25.083Z,18.00
2017-10-25T13:37:25.077Z,18.00
2017-10-25T13:38:25.075Z,17.92
2017-10-25T13:39:25.071Z,17.97
2017-10-25T13:40:25.065Z,17.90
2017-10-25T13:41:25.062Z,17.75
2017-10-25T13:42:25.071Z,17.72
2017-10-25T13:43:25.054Z,17.63
2017-10-25T13:44:25.050Z,17.58
2017-10-25T13:45:25.046Z,17.58
2017-10-25T13:46:25.043Z,17.46
2017-10-25T13:47:25.037Z,17.43
2017-10-25T13:48:25.031Z,17.41
2017-10-25T13:49:25.027Z,17.31
2017-10-25T13:50:25.023Z,17.38
2017-10-25T13:51:25.019Z,17.31
2017-10-25T13:52:25.013Z,17.30